Latest Weather Observations for North Head

IDN60801

Issued at 3:13 pm EST Monday 23 September 2019 (issued every 10 minutes, with the page automatically refreshed every 10 minutes)

About weather observations | Map of weather stations | Latest weather observations for NSW | Other Formats
Station Details ID: 066197 Name: NORTH HEAD Lat: -33.82 Lon: 151.30 Height: 90.0 m
Data from the previous 72 hours. | See also: Recent months at North Head
Date/Time
EST
Temp
°C
App
Temp
°C
Dew
Point
°C
Rel
Hum
%
Delta-T
°C
Wind Press
QNH
hPa
Press
MSL
hPa
Rain since
9am
mm
Dir  Spd
km/h
Gust
km/h
Spd
kts
Gust
kts
23/03:00pm - - - - - ESE 13 20 7 11 - - -
23/02:30pm - - - - - SE 9 15 5 8 - - -
23/02:00pm - - - - - ESE 13 22 7 12 - - -
23/01:30pm - - - - - SSE 7 19 4 10 - - -
23/01:00pm - - - - - W 15 26 8 14 - - -
23/12:30pm - - - - - WNW 15 26 8 14 - - -
23/12:00pm - - - - - WNW 15 26 8 14 - - -
23/11:30am - - - - - W 20 32 11 17 - - -
23/11:00am - - - - - W 15 26 8 14 - - -
23/10:30am - - - - - W 15 33 8 18 - - -
23/10:00am - - - - - WNW 17 24 9 13 - - -
23/09:30am - - - - - WNW 9 13 5 7 - - -
23/09:00am - - - - - WNW 9 17 5 9 - - -
23/08:30am - - - - - WNW 13 19 7 10 - - -
23/08:00am - - - - - WNW 9 15 5 8 - - -
23/07:30am - - - - - W 7 13 4 7 - - -
23/07:00am - - - - - W 11 13 6 7 - - -
23/06:30am - - - - - WNW 7 9 4 5 - - -
23/06:00am - - - - - W 13 20 7 11 - - -
23/05:30am - - - - - W 13 19 7 10 - - -
23/05:00am - - - - - W 13 17 7 9 - - -
23/04:30am - - - - - W 11 13 6 7 - - -
23/04:00am - - - - - WSW 9 15 5 8 - - -
23/03:30am - - - - - WSW 11 19 6 10 - - -
23/03:00am - - - - - WSW 11 17 6 9 - - -
23/02:30am - - - - - WSW 11 17 6 9 - - -
23/02:00am - - - - - WSW 13 19 7 10 - - -
23/01:30am - - - - - SW 13 20 7 11 - - -
23/01:00am - - - - - WSW 9 15 5 8 - - -
23/12:30am - - - - - WSW 9 15 5 8 - - -
23/12:00am - - - - - SW 7 13 4 7 - - -
 
Date/Time
EST
Temp
°C
App
Temp
°C
Dew
Point
°C
Rel
Hum
%
Delta-T
°C
Wind Press
QNH
hPa
Press
MSL
hPa
Rain since
9am
mm
Dir  Spd
km/h
Gust
km/h
Spd
kts
Gust
kts
22/11:30pm - - - - - SSW 9 15 5 8 - - -
22/11:00pm - - - - - SSW 9 15 5 8 - - -
22/10:30pm - - - - - SSW 7 13 4 7 - - -
22/10:00pm - - - - - S 7 9 4 5 - - -
22/09:30pm - - - - - S 7 11 4 6 - - -
22/09:00pm - - - - - SSE 11 17 6 9 - - -
22/08:30pm - - - - - SSE 9 15 5 8 - - -
22/08:00pm - - - - - SSE 7 11 4 6 - - -
22/07:30pm - - - - - SSE 9 13 5 7 - - -
22/07:00pm - - - - - SE 7 13 4 7 - - -
22/06:30pm - - - - - ESE 11 15 6 8 - - -
22/06:00pm - - - - - ESE 13 17 7 9 - - -
22/05:30pm - - - - - ESE 15 20 8 11 - - -
22/05:00pm - - - - - ESE 13 22 7 12 - - -
22/04:30pm - - - - - SE 13 20 7 11 - - -
22/04:00pm - - - - - ESE 17 22 9 12 - - -
22/03:30pm - - - - - ESE 19 26 10 14 - - -
22/03:00pm - - - - - ESE 19 24 10 13 - - -
22/02:30pm - - - - - ESE 15 20 8 11 - - -
22/02:00pm - - - - - ESE 13 19 7 10 - - -
22/01:30pm - - - - - ESE 11 17 6 9 - - -
22/01:00pm - - - - - ESE 13 19 7 10 - - -
22/12:30pm - - - - - SE 11 15 6 8 - - -
22/12:00pm - - - - - SE 11 17 6 9 - - -
22/11:30am - - - - - SSE 15 20 8 11 - - -
22/11:00am - - - - - SSE 13 17 7 9 - - -
22/10:30am - - - - - WSW 9 13 5 7 - - -
22/10:00am - - - - - SW 11 15 6 8 - - -
22/09:30am - - - - - SW 11 19 6 10 - - -
22/09:00am - - - - - SW 7 13 4 7 - - -
22/08:30am - - - - - SSW 9 15 5 8 - - -
22/08:00am - - - - - W 11 17 6 9 - - -
22/07:30am - - - - - WNW 9 15 5 8 - - -
22/07:00am - - - - - NW 11 19 6 10 - - -
22/06:30am - - - - - NW 13 20 7 11 - - -
22/06:00am - - - - - NW 15 22 8 12 - - -
22/05:30am - - - - - NW 13 17 7 9 - - -
22/05:00am - - - - - NNW 11 15 6 8 - - -
22/04:30am - - - - - N 4 7 2 4 - - -
22/04:00am - - - - - NNW 6 9 3 5 - - -
22/03:30am - - - - - N 7 17 4 9 - - -
22/03:00am - - - - - NNW 6 9 3 5 - - -
22/02:30am - - - - - WNW 9 13 5 7 - - -
22/02:00am - - - - - SW 2 6 1 3 - - -
22/01:30am - - - - - N 9 11 5 6 - - -
22/01:00am - - - - - NNE 9 13 5 7 - - -
22/12:30am - - - - - N 15 19 8 10 - - -
22/12:00am - - - - - N 15 20 8 11 - - -
 
Date/Time
EST
Temp
°C
App
Temp
°C
Dew
Point
°C
Rel
Hum
%
Delta-T
°C
Wind Press
QNH
hPa
Press
MSL
hPa
Rain since
9am
mm
Dir  Spd
km/h
Gust
km/h
Spd
kts
Gust
kts
21/11:30pm - - - - - NNE 17 26 9 14 - - -
21/11:00pm - - - - - NNE 15 24 8 13 - - -
21/10:30pm - - - - - NNE 17 24 9 13 - - -
21/10:00pm - - - - - NNE 19 26 10 14 - - -
21/09:30pm - - - - - NNE 15 19 8 10 - - -
21/09:00pm - - - - - N 15 22 8 12 - - -
21/08:30pm - - - - - NE 20 32 11 17 - - -
21/08:00pm - - - - - NE 19 28 10 15 - - -
21/07:30pm - - - - - N 15 41 8 22 - - -
21/07:00pm - - - - - NNE 20 32 11 17 - - -
21/06:30pm - - - - - NNE 20 32 11 17 - - -
21/06:00pm - - - - - NNE 20 32 11 17 - - -
21/05:30pm - - - - - NNE 19 30 10 16 - - -
21/05:00pm - - - - - NNE 20 32 11 17 - - -
21/04:30pm - - - - - NNE 19 30 10 16 - - -
21/04:00pm - - - - - NNE 20 32 11 17 - - -
21/03:30pm - - - - - NNE 22 33 12 18 - - -
21/03:00pm - - - - - NNE 20 39 11 21 - - -
21/02:30pm - - - - - NNE 19 32 10 17 - - -
21/02:00pm - - - - - NNE 22 33 12 18 - - -
21/01:30pm - - - - - NE 19 30 10 16 - - -
21/01:00pm - - - - - NNE 22 32 12 17 - - -
21/12:30pm - - - - - NNE 22 35 12 19 - - -
21/12:00pm - - - - - NNE 20 32 11 17 - - -
21/11:30am - - - - - NNE 20 30 11 16 - - -
21/11:00am - - - - - NNE 20 28 11 15 - - -
21/10:30am - - - - - NE 17 24 9 13 - - -
21/10:00am - - - - - NNE 13 20 7 11 - - -
21/09:30am - - - - - NNE 15 20 8 11 - - -
21/09:00am - - - - - NNE 15 20 8 11 - - -
21/08:30am - - - - - NNE 17 24 9 13 - - -
21/08:00am - - - - - NNE 20 30 11 16 - - -
21/07:30am - - - - - NNE 19 26 10 14 - - -
21/07:00am - - - - - NNE 17 28 9 15 - - -
21/06:30am - - - - - NNE 19 28 10 15 - - -
21/06:00am - - - - - NNE 17 28 9 15 - - -
21/05:30am - - - - - NNE 19 30 10 16 - - -
21/05:00am - - - - - NNE 19 30 10 16 - - -
21/04:30am - - - - - NNE 19 32 10 17 - - -
21/04:00am - - - - - NNE 17 28 9 15 - - -
21/03:30am - - - - - NNE 13 22 7 12 - - -
21/03:00am - - - - - NNE 15 20 8 11 - - -
21/02:30am - - - - - NNE 19 28 10 15 - - -
21/02:00am - - - - - NNE 22 35 12 19 - - -
21/01:30am - - - - - NNE 22 35 12 19 - - -
21/01:00am - - - - - NE 22 35 12 19 - - -
21/12:30am - - - - - NE 22 33 12 18 - - -
21/12:00am - - - - - NNE 22 33 12 18 - - -
 
Date/Time
EST
Temp
°C
App
Temp
°C
Dew
Point
°C
Rel
Hum
%
Delta-T
°C
Wind Press
QNH
hPa
Press
MSL
hPa
Rain since
9am
mm
Dir  Spd
km/h
Gust
km/h
Spd
kts
Gust
kts
20/11:30pm - - - - - NNE 22 33 12 18 - - -
20/11:00pm - - - - - NE 24 39 13 21 - - -
20/10:30pm - - - - - NNE 24 43 13 23 - - -
20/10:00pm - - - - - NE 24 39 13 21 - - -
20/09:30pm - - - - - NE 22 39 12 21 - - -
20/09:00pm - - - - - NE 24 41 13 22 - - -
20/08:30pm - - - - - NE 26 37 14 20 - - -
20/08:00pm - - - - - NE 24 35 13 19 - - -
20/07:30pm - - - - - NE 22 35 12 19 - - -
20/07:00pm - - - - - NE 22 35 12 19 - - -
20/06:30pm - - - - - NE 22 37 12 20 - - -
20/06:00pm - - - - - NE 22 33 12 18 - - -
20/05:30pm - - - - - NE 20 33 11 18 - - -
20/05:00pm - - - - - NE 22 33 12 18 - - -
20/04:30pm - - - - - NE 22 33 12 18 - - -
20/04:00pm - - - - - NE 22 32 12 17 - - -
20/03:30pm - - - - - NE 24 37 13 20 - - -

Other formats

Comma delimited format used in spreadsheet applications
http://www.bom.gov.au/fwo/IDN60801/IDN60801.95768.axf

JavaScript Object Notation format (JSON) in row-major order
http://www.bom.gov.au/fwo/IDN60801/IDN60801.95768.json

Data quality

Most of these data are generated automatically and are frequently updated. Quality checks on data are not normally performed. It is possible for incorrect values to appear. Refer to information at About Latest Weather Observations and please check the disclaimer before using these data.